createdAt,value
2019-04-16T00:00:50.700Z,33.20
2019-04-16T00:03:20.343Z,36.68
2019-04-16T00:05:52.844Z,37.75
2019-04-16T00:08:29.843Z,39.65
2019-04-16T00:11:00.868Z,35.33
2019-04-16T00:13:37.277Z,36.98
2019-04-16T00:16:06.608Z,36.77
2019-04-16T00:18:35.936Z,32.78
2019-04-16T00:21:06.427Z,44.23
2019-04-16T00:23:46.740Z,36.55
2019-04-16T00:26:16.039Z,38.80
2019-04-16T00:28:45.380Z,39.38
2019-04-16T00:31:14.715Z,39.20
2019-04-16T00:33:44.090Z,35.73
2019-04-16T00:36:15.410Z,35.08
2019-04-16T00:38:44.509Z,33.02
2019-04-16T00:41:13.835Z,32.42
2019-04-16T00:43:44.255Z,35.73
2019-04-16T00:46:13.633Z,34.40
2019-04-16T00:48:42.964Z,31.93
2019-04-16T00:51:12.410Z,29.05
2019-04-16T00:53:41.756Z,31.87
2019-04-16T00:56:13.409Z,39.75
2019-04-16T00:58:42.159Z,36.03
2019-04-16T01:01:11.532Z,37.33
2019-04-16T01:03:40.887Z,33.25
2019-04-16T01:06:10.224Z,34.13
2019-04-16T01:08:39.580Z,40.05
2019-04-16T01:11:09.048Z,39.98
2019-04-16T01:13:38.449Z,39.20
2019-04-16T01:16:07.789Z,35.95
2019-04-16T01:18:38.833Z,39.33
2019-04-16T01:21:08.225Z,45.98
2019-04-16T01:23:37.575Z,41.73
2019-04-16T01:26:06.928Z,32.90
2019-04-16T01:28:40.594Z,34.48
2019-04-16T01:31:15.700Z,34.90
2019-04-16T01:33:49.587Z,48.05
2019-04-16T01:36:24.412Z,42.25
2019-04-16T01:39:14.902Z,42.90
2019-04-16T01:41:29.191Z,36.25
2019-04-16T01:43:58.631Z,36.00
2019-04-16T01:46:32.554Z,29.87
2019-04-16T01:48:59.151Z,33.38
2019-04-16T01:51:28.521Z,27.45
2019-04-16T01:53:58.311Z,28.62
2019-04-16T01:56:28.804Z,27.40
2019-04-16T01:58:58.657Z,25.00
2019-04-16T02:01:27.961Z,25.12
2019-04-16T02:03:57.367Z,28.95
2019-04-16T02:06:26.764Z,21.82
2019-04-16T02:08:56.176Z,25.48
2019-04-16T02:11:25.524Z,26.87
2019-04-16T02:13:54.863Z,22.55
2019-04-16T02:16:25.268Z,23.20
2019-04-16T02:18:55.388Z,20.92
2019-04-16T02:21:24.733Z,23.18
2019-04-16T02:23:54.072Z,24.85
2019-04-16T02:26:24.217Z,21.60
2019-04-16T02:28:56.525Z,23.92
2019-04-16T02:31:24.829Z,24.70
2019-04-16T02:33:54.199Z,27.82
2019-04-16T02:36:23.555Z,28.07
2019-04-16T02:38:53.692Z,21.35
2019-04-16T02:41:24.662Z,24.75
2019-04-16T02:43:54.208Z,24.82
2019-04-16T02:46:27.234Z,25.55
2019-04-16T02:48:54.684Z,29.40
2019-04-16T02:51:28.333Z,23.18
2019-04-16T02:54:02.301Z,26.70
2019-04-16T02:56:52.003Z,25.85
2019-04-16T02:59:22.085Z,28.12
2019-04-16T03:01:53.094Z,27.87
2019-04-16T03:04:27.971Z,25.05
2019-04-16T03:06:57.321Z,30.77
2019-04-16T03:09:26.660Z,28.12
2019-04-16T03:11:56.017Z,27.40
2019-04-16T03:14:29.787Z,27.85
2019-04-16T03:16:56.205Z,27.42
2019-04-16T03:19:39.158Z,24.82
2019-04-16T03:22:08.795Z,24.45
2019-04-16T03:24:40.209Z,28.20
2019-04-16T03:27:09.394Z,27.70
2019-04-16T03:29:38.891Z,29.23
2019-04-16T03:32:13.132Z,26.40
2019-04-16T03:34:39.383Z,26.45
2019-04-16T03:37:08.812Z,23.20
2019-04-16T03:39:38.273Z,25.50
2019-04-16T03:42:07.718Z,32.08
2019-04-16T03:44:37.525Z,27.17
2019-04-16T03:47:06.953Z,29.75
2019-04-16T03:49:36.294Z,32.75
2019-04-16T03:52:08.425Z,29.75
2019-04-16T03:54:36.770Z,27.55
2019-04-16T03:57:06.281Z,30.60
2019-04-16T03:59:35.614Z,28.62
2019-04-16T04:02:05.136Z,28.05
2019-04-16T04:04:34.259Z,28.30
2019-04-16T04:07:03.615Z,28.17
2019-04-16T04:09:33.029Z,26.48
2019-04-16T04:12:02.354Z,26.33
2019-04-16T04:14:31.955Z,30.97
2019-04-16T04:17:05.191Z,30.52
2019-04-16T04:19:32.447Z,24.25
2019-04-16T04:22:01.779Z,31.17
2019-04-16T04:24:31.621Z,30.80
2019-04-16T04:27:01.598Z,27.30
2019-04-16T04:29:30.932Z,33.80
2019-04-16T04:32:03.054Z,29.10
2019-04-16T04:34:31.443Z,35.08
2019-04-16T04:37:00.863Z,32.67
2019-04-16T04:39:30.188Z,33.63
2019-04-16T04:41:59.609Z,25.50
2019-04-16T04:44:28.968Z,29.00
2019-04-16T04:46:58.327Z,26.50
2019-04-16T04:49:30.354Z,27.55
2019-04-16T04:51:58.798Z,28.05
2019-04-16T04:54:28.321Z,27.70
2019-04-16T04:56:59.274Z,23.95
2019-04-16T04:59:28.803Z,28.80
2019-04-16T05:01:58.156Z,23.18
2019-04-16T05:04:35.342Z,30.00
2019-04-16T05:07:06.381Z,27.62
2019-04-16T05:09:36.745Z,29.50
2019-04-16T05:12:08.058Z,27.07
2019-04-16T05:14:39.176Z,32.03
2019-04-16T05:17:08.616Z,32.13
2019-04-16T05:19:37.950Z,30.00
2019-04-16T05:22:07.289Z,31.25
2019-04-16T05:24:37.641Z,26.12
2019-04-16T05:27:08.613Z,25.72
2019-04-16T05:29:38.262Z,25.90
2019-04-16T05:32:07.598Z,24.90
2019-04-16T05:34:37.461Z,25.50
2019-04-16T05:37:07.677Z,29.55
2019-04-16T05:39:37.088Z,29.23
2019-04-16T05:42:06.437Z,27.20
2019-04-16T05:44:35.811Z,27.80
2019-04-16T05:47:05.186Z,25.97
2019-04-16T05:49:34.520Z,27.62
2019-04-16T05:52:04.217Z,27.15
2019-04-16T05:54:35.322Z,29.50
2019-04-16T05:57:06.311Z,24.67
2019-04-16T05:59:35.748Z,32.58
2019-04-16T06:02:06.732Z,27.27
2019-04-16T06:04:36.082Z,23.83
2019-04-16T06:07:07.706Z,29.30
2019-04-16T06:09:36.678Z,25.70
2019-04-16T06:12:08.894Z,30.82
2019-04-16T06:14:38.763Z,31.68
2019-04-16T06:17:31.547Z,31.85
2019-04-16T06:20:19.296Z,23.27
2019-04-16T06:23:00.832Z,25.05
2019-04-16T06:25:31.328Z,20.52
2019-04-16T06:28:02.299Z,27.00
2019-04-16T06:30:39.098Z,23.38
2019-04-16T06:33:12.816Z,27.82
2019-04-16T06:35:46.867Z,26.52
2019-04-16T06:38:21.046Z,28.35
2019-04-16T06:40:56.494Z,28.57
2019-04-16T06:43:27.578Z,30.82
2019-04-16T06:46:05.513Z,34.20
2019-04-16T06:48:42.491Z,37.17
2019-04-16T06:51:19.990Z,30.62
2019-04-16T06:54:03.250Z,27.45
2019-04-16T06:56:50.602Z,33.08
2019-04-16T06:59:22.154Z,27.98
2019-04-16T07:02:03.289Z,34.15
2019-04-16T07:04:36.982Z,34.73
2019-04-16T07:07:14.137Z,38.13
2019-04-16T07:09:45.993Z,33.90
2019-04-16T07:12:17.236Z,32.30
2019-04-16T07:14:48.366Z,33.13
2019-04-16T07:17:18.729Z,40.48
2019-04-16T07:19:48.336Z,35.52
2019-04-16T07:22:21.225Z,32.95
2019-04-16T07:24:50.588Z,27.55
2019-04-16T07:27:21.255Z,32.30
2019-04-16T07:29:55.500Z,32.75
2019-04-16T07:32:27.301Z,30.92
2019-04-16T07:35:00.978Z,25.75
2019-04-16T07:37:33.077Z,30.02
2019-04-16T07:40:10.676Z,22.98
2019-04-16T07:42:51.303Z,27.70
2019-04-16T07:45:18.967Z,22.20
2019-04-16T07:48:00.243Z,21.75
2019-04-16T07:50:41.353Z,22.22
2019-04-16T07:53:14.288Z,21.75
2019-04-16T07:55:51.475Z,21.27
2019-04-16T07:58:20.806Z,20.23
2019-04-16T08:00:50.197Z,22.42
2019-04-16T08:03:19.636Z,22.40
2019-04-16T08:05:48.972Z,25.08
2019-04-16T08:08:18.411Z,24.27
2019-04-16T08:10:47.768Z,24.00
2019-04-16T08:13:18.756Z,26.20
2019-04-16T08:15:48.639Z,18.85
2019-04-16T08:18:17.995Z,24.45
2019-04-16T08:21:00.316Z,17.82
2019-04-16T08:23:39.239Z,11.83
2019-04-16T08:26:13.075Z,16.60
2019-04-16T08:28:40.213Z,8.48
2019-04-16T08:31:12.738Z,7.90
2019-04-16T08:33:42.465Z,5.80
2019-04-16T08:36:11.803Z,7.42
2019-04-16T08:38:42.120Z,7.00
2019-04-16T08:41:13.244Z,7.28
2019-04-16T08:43:42.523Z,5.83
2019-04-16T08:46:12.241Z,5.53
2019-04-16T08:48:41.683Z,5.65
2019-04-16T08:51:11.011Z,10.65
2019-04-16T08:53:40.435Z,6.35
2019-04-16T08:56:09.785Z,5.17
2019-04-16T08:58:39.165Z,6.22
2019-04-16T09:01:10.235Z,6.62
2019-04-16T09:03:39.677Z,5.73
2019-04-16T09:06:13.136Z,7.00
2019-04-16T09:09:11.177Z,6.23
2019-04-16T09:11:28.932Z,7.65
2019-04-16T09:13:59.890Z,7.62
2019-04-16T09:16:29.800Z,9.00
2019-04-16T09:18:58.921Z,10.32
2019-04-16T09:21:28.401Z,8.33
2019-04-16T09:24:17.664Z,7.17
2019-04-16T09:26:48.638Z,6.70
2019-04-16T09:29:31.613Z,7.05
2019-04-16T09:32:06.473Z,9.55
2019-04-16T09:35:07.421Z,8.35
2019-04-16T09:37:32.186Z,6.35
2019-04-16T09:40:15.845Z,7.65
2019-04-16T09:42:36.087Z,17.00
2019-04-16T09:45:09.531Z,8.68
2019-04-16T09:47:38.884Z,9.35
2019-04-16T09:50:11.181Z,8.65
2019-04-16T09:52:39.304Z,7.42
2019-04-16T09:55:08.819Z,13.10
2019-04-16T09:57:38.180Z,13.20
2019-04-16T10:00:09.531Z,7.95
2019-04-16T10:02:39.003Z,6.95
2019-04-16T10:05:08.476Z,9.53
2019-04-16T10:07:40.273Z,8.53
2019-04-16T10:10:09.472Z,10.30
2019-04-16T10:12:38.826Z,7.83
2019-04-16T10:15:08.742Z,7.60
2019-04-16T10:17:38.255Z,10.15
2019-04-16T10:20:07.649Z,8.23
2019-04-16T10:22:36.993Z,8.03
2019-04-16T10:25:14.118Z,17.23
2019-04-16T10:27:45.156Z,6.40
2019-04-16T10:30:21.794Z,4.65
2019-04-16T10:32:51.179Z,4.58
2019-04-16T10:35:20.763Z,5.10
2019-04-16T10:37:50.136Z,3.72
2019-04-16T10:40:21.112Z,2.95
2019-04-16T10:43:01.240Z,4.28
2019-04-16T10:45:39.489Z,11.80
2019-04-16T10:48:19.261Z,5.65
2019-04-16T10:50:52.699Z,6.85
2019-04-16T10:53:23.693Z,4.15
2019-04-16T10:55:54.785Z,5.33
2019-04-16T10:58:32.054Z,6.30
2019-04-16T11:01:03.223Z,9.95
2019-04-16T11:03:37.278Z,4.97
2019-04-16T11:06:08.368Z,3.67
2019-04-16T11:08:37.677Z,4.47
2019-04-16T11:11:07.029Z,6.15
2019-04-16T11:13:38.104Z,4.58
2019-04-16T11:16:12.347Z,5.05
2019-04-16T11:18:41.768Z,5.92
2019-04-16T11:21:11.601Z,4.58
2019-04-16T11:23:41.080Z,4.78
2019-04-16T11:26:10.453Z,4.05
2019-04-16T11:28:39.844Z,3.85
2019-04-16T11:31:13.429Z,3.95
2019-04-16T11:33:42.900Z,4.12
2019-04-16T11:36:19.869Z,5.47
2019-04-16T11:38:43.462Z,5.23
2019-04-16T11:41:12.811Z,9.43
2019-04-16T11:43:42.339Z,5.15
2019-04-16T11:46:11.844Z,5.30
2019-04-16T11:48:41.307Z,9.98
2019-04-16T11:51:10.674Z,4.58
2019-04-16T11:53:40.075Z,5.60
2019-04-16T11:56:09.438Z,4.97
2019-04-16T11:58:40.538Z,4.45
2019-04-16T12:01:28.227Z,6.78
2019-04-16T12:03:57.316Z,7.22
2019-04-16T12:06:40.175Z,5.37
2019-04-16T12:09:15.390Z,4.78
2019-04-16T12:11:52.265Z,9.10
2019-04-16T12:14:32.367Z,9.28
2019-04-16T12:17:04.778Z,6.92
2019-04-16T12:19:36.608Z,14.98
2019-04-16T12:22:07.601Z,11.03
2019-04-16T12:24:49.050Z,15.28
2019-04-16T12:27:22.920Z,6.92
2019-04-16T12:29:57.844Z,11.88
2019-04-16T12:32:45.101Z,12.58
2019-04-16T12:35:20.077Z,9.03
2019-04-16T12:38:12.260Z,15.18
2019-04-16T12:40:45.430Z,9.40
2019-04-16T12:43:32.123Z,7.58
2019-04-16T12:46:10.141Z,7.10
2019-04-16T12:48:53.948Z,7.03
2019-04-16T12:51:29.246Z,6.22
2019-04-16T12:54:07.332Z,7.55
2019-04-16T12:56:54.286Z,8.03
2019-04-16T12:59:40.328Z,9.40
2019-04-16T13:02:17.992Z,11.08
2019-04-16T13:04:49.515Z,8.78
2019-04-16T13:07:20.535Z,7.65
2019-04-16T13:10:07.595Z,7.70
2019-04-16T13:12:44.270Z,9.65
2019-04-16T13:15:15.390Z,12.37
2019-04-16T13:17:47.911Z,11.25
2019-04-16T13:20:19.228Z,10.48
2019-04-16T13:22:55.701Z,11.40
2019-04-16T13:25:29.430Z,15.40
2019-04-16T13:27:58.774Z,10.82
2019-04-16T13:30:28.187Z,9.03
2019-04-16T13:32:57.551Z,10.35
2019-04-16T13:35:27.008Z,15.50
2019-04-16T13:37:56.391Z,10.53
2019-04-16T13:40:25.831Z,10.75
2019-04-16T13:42:55.165Z,9.33
2019-04-16T13:45:27.359Z,13.10
2019-04-16T13:47:57.446Z,13.08
2019-04-16T13:50:26.561Z,16.32
2019-04-16T13:52:57.571Z,16.15
2019-04-16T13:55:44.610Z,15.65
2019-04-16T13:58:14.416Z,15.00
2019-04-16T14:00:51.231Z,17.32
2019-04-16T14:03:23.952Z,15.55
2019-04-16T14:05:53.138Z,13.43
2019-04-16T14:08:22.527Z,12.13
2019-04-16T14:10:51.859Z,11.28
2019-04-16T14:13:21.200Z,13.43
2019-04-16T14:15:50.625Z,12.73
2019-04-16T14:18:21.819Z,9.93
2019-04-16T14:20:51.117Z,11.12
2019-04-16T14:23:20.656Z,17.48
2019-04-16T14:25:50.032Z,20.20
2019-04-16T14:28:19.365Z,17.45
2019-04-16T14:30:49.667Z,13.62
2019-04-16T14:33:20.664Z,14.65
2019-04-16T14:35:50.008Z,15.75
2019-04-16T14:38:21.014Z,18.05
2019-04-16T14:40:50.354Z,16.48
2019-04-16T14:43:21.367Z,11.40
2019-04-16T14:45:58.313Z,15.05
2019-04-16T14:50:51.612Z,25.20
2019-04-16T14:53:22.638Z,16.25
2019-04-16T14:56:00.462Z,15.25
2019-04-16T14:58:37.964Z,16.20
2019-04-16T15:01:18.993Z,17.37
2019-04-16T15:03:48.226Z,16.57
2019-04-16T15:06:28.224Z,20.05
2019-04-16T15:09:15.527Z,24.72
2019-04-16T15:11:49.036Z,21.20
2019-04-16T15:14:23.339Z,20.97
2019-04-16T15:16:56.497Z,16.30
2019-04-16T15:19:36.338Z,14.45
2019-04-16T15:22:22.937Z,18.82
2019-04-16T15:25:07.286Z,16.42
2019-04-16T15:27:49.111Z,18.17
2019-04-16T15:30:30.640Z,16.87
2019-04-16T15:33:17.472Z,18.35
2019-04-16T15:35:54.528Z,16.60
2019-04-16T15:38:23.737Z,13.30
2019-04-16T15:41:13.254Z,16.90
2019-04-16T15:43:50.438Z,13.22
2019-04-16T15:46:41.058Z,14.50
2019-04-16T15:49:07.084Z,14.87
2019-04-16T15:51:44.212Z,16.48
2019-04-16T15:54:13.977Z,16.50
2019-04-16T15:56:48.889Z,14.70
2019-04-16T15:59:25.585Z,11.18
2019-04-16T16:02:02.622Z,16.82
2019-04-16T16:04:36.355Z,15.95
2019-04-16T16:07:08.710Z,19.82
2019-04-16T16:12:11.518Z,16.75
2019-04-16T16:14:40.876Z,8.50
2019-04-16T16:17:10.211Z,10.30
2019-04-16T16:19:39.571Z,11.80
2019-04-16T16:22:11.944Z,8.70
2019-04-16T16:24:42.455Z,7.95
2019-04-16T16:27:11.125Z,7.47
2019-04-16T16:29:40.470Z,11.05
2019-04-16T16:32:09.934Z,7.35
2019-04-16T16:34:39.274Z,12.13
2019-04-16T16:37:08.735Z,10.10
2019-04-16T16:39:38.176Z,12.30
2019-04-16T16:42:07.703Z,11.05
2019-04-16T16:44:37.105Z,12.63
2019-04-16T16:47:17.204Z,15.18
2019-04-16T16:49:46.717Z,16.55
2019-04-16T16:52:20.558Z,13.88
2019-04-16T16:54:51.563Z,10.05
2019-04-16T16:57:22.547Z,13.20
2019-04-16T16:59:53.531Z,10.98
2019-04-16T17:02:36.804Z,10.72
2019-04-16T17:05:09.142Z,14.63
2019-04-16T17:07:38.507Z,14.75
2019-04-16T17:10:08.003Z,13.93
2019-04-16T17:12:37.547Z,14.07
2019-04-16T17:15:09.354Z,13.93
2019-04-16T17:17:38.981Z,16.17
2019-04-16T17:20:08.351Z,15.43
2019-04-16T17:22:40.569Z,18.35
2019-04-16T17:25:11.651Z,15.88
2019-04-16T17:27:51.049Z,9.48
2019-04-16T17:30:11.101Z,10.75
2019-04-16T17:32:40.433Z,9.55
2019-04-16T17:35:14.346Z,9.75
2019-04-16T17:37:41.047Z,14.25
2019-04-16T17:40:16.090Z,15.43
2019-04-16T17:42:44.912Z,13.32
2019-04-16T17:45:14.016Z,12.45
2019-04-16T17:48:03.002Z,14.45
2019-04-16T17:50:32.358Z,9.70
2019-04-16T17:53:19.791Z,9.33
2019-04-16T17:56:06.883Z,17.30
2019-04-16T17:58:52.915Z,10.00
2019-04-16T18:01:23.956Z,13.13
2019-04-16T18:03:57.794Z,10.93
2019-04-16T18:06:40.803Z,12.03
2019-04-16T18:09:12.600Z,12.28
2019-04-16T18:11:45.393Z,12.45
2019-04-16T18:14:16.489Z,8.48
2019-04-16T18:16:50.072Z,10.08
2019-04-16T18:19:26.260Z,9.65
2019-04-16T18:22:05.503Z,11.53
2019-04-16T18:24:48.951Z,9.25
2019-04-16T18:27:29.236Z,8.78
2019-04-16T18:29:58.569Z,10.48
2019-04-16T18:32:36.660Z,13.53
2019-04-16T18:35:16.470Z,10.75
2019-04-16T18:37:58.276Z,9.65
2019-04-16T18:40:45.406Z,17.07
2019-04-16T18:43:16.375Z,12.10
2019-04-16T18:45:56.815Z,19.70
2019-04-16T18:48:31.089Z,15.83
2019-04-16T18:51:01.984Z,13.18
2019-04-16T18:53:31.486Z,15.53
2019-04-16T18:56:00.833Z,18.82
2019-04-16T18:58:30.197Z,15.58
2019-04-16T19:01:01.174Z,15.98
2019-04-16T19:03:30.636Z,19.45
2019-04-16T19:05:59.985Z,17.20
2019-04-16T19:08:40.984Z,17.32
2019-04-16T19:11:00.627Z,17.47
2019-04-16T19:13:29.978Z,16.82
2019-04-16T19:15:59.590Z,18.35
2019-04-16T19:18:28.937Z,19.07
2019-04-16T19:20:58.275Z,17.48
2019-04-16T19:23:27.652Z,14.00
2019-04-16T19:25:56.992Z,15.83
2019-04-16T19:28:26.333Z,17.05
2019-04-16T19:30:55.697Z,12.43
2019-04-16T19:33:25.058Z,13.25
2019-04-16T19:35:54.438Z,15.38
2019-04-16T19:38:23.761Z,13.75
2019-04-16T19:40:53.099Z,14.23
2019-04-16T19:43:22.646Z,14.28
2019-04-16T19:45:51.986Z,11.63
2019-04-16T19:48:34.752Z,12.07
2019-04-16T19:50:52.398Z,13.00
2019-04-16T19:53:21.734Z,12.80
2019-04-16T19:55:51.088Z,14.60
2019-04-16T19:58:20.421Z,13.70
2019-04-16T20:00:49.823Z,15.23
2019-04-16T20:03:19.147Z,13.68
2019-04-16T20:05:48.555Z,14.43
2019-04-16T20:08:17.918Z,15.28
2019-04-16T20:10:48.888Z,20.05
2019-04-16T20:13:18.556Z,16.30
2019-04-16T20:15:47.881Z,15.10
2019-04-16T20:18:18.875Z,16.93
2019-04-16T20:20:50.150Z,13.32
2019-04-16T20:23:19.328Z,15.10
2019-04-16T20:25:48.792Z,15.28
2019-04-16T20:28:18.129Z,17.73
2019-04-16T20:30:47.475Z,14.28
2019-04-16T20:33:16.826Z,12.90
2019-04-16T20:35:50.385Z,14.65
2019-04-16T20:38:17.331Z,12.03
2019-04-16T20:40:46.679Z,13.53
2019-04-16T20:43:16.138Z,11.18
2019-04-16T20:45:45.496Z,12.23
2019-04-16T20:48:14.941Z,13.18
2019-04-16T20:50:44.326Z,13.48
2019-04-16T20:53:13.660Z,12.63
2019-04-16T20:55:47.106Z,16.45
2019-04-16T20:58:14.916Z,15.95
2019-04-16T21:00:46.061Z,15.83
2019-04-16T21:03:22.455Z,14.50
2019-04-16T21:05:57.761Z,16.93
2019-04-16T21:08:24.290Z,17.57
2019-04-16T21:10:50.985Z,22.27
2019-04-16T21:13:20.545Z,15.90
2019-04-16T21:15:49.920Z,17.82
2019-04-16T21:18:20.888Z,21.90
2019-04-16T21:20:51.210Z,21.05
2019-04-16T21:23:21.231Z,22.10
2019-04-16T21:25:50.567Z,21.42
2019-04-16T21:28:27.815Z,20.50
2019-04-16T21:31:01.238Z,22.45
2019-04-16T21:33:32.247Z,23.00
2019-04-16T21:36:08.645Z,25.10
2019-04-16T21:38:46.574Z,18.02
2019-04-16T21:41:15.895Z,19.80
2019-04-16T21:43:45.299Z,22.07
2019-04-16T21:46:14.804Z,27.45
2019-04-16T21:48:45.748Z,23.35
2019-04-16T21:51:19.073Z,20.45
2019-04-16T21:53:46.176Z,15.28
2019-04-16T21:56:15.517Z,21.87
2019-04-16T21:58:46.580Z,18.70
2019-04-16T22:01:20.119Z,31.40
2019-04-16T22:03:51.553Z,19.23
2019-04-16T22:06:21.054Z,20.90
2019-04-16T22:08:50.678Z,16.85
2019-04-16T22:11:20.033Z,15.45
2019-04-16T22:13:50.801Z,18.85
2019-04-16T22:16:20.535Z,17.50
2019-04-16T22:18:49.890Z,18.70
2019-04-16T22:21:19.304Z,14.83
2019-04-16T22:23:50.404Z,14.03
2019-04-16T22:26:21.362Z,16.48
2019-04-16T22:28:50.685Z,7.87
2019-04-16T22:31:20.846Z,7.65
2019-04-16T22:33:51.091Z,7.53
2019-04-16T22:36:20.428Z,7.53
2019-04-16T22:38:51.439Z,6.95
2019-04-16T22:41:32.210Z,5.72
2019-04-16T22:44:01.360Z,5.28
2019-04-16T22:46:32.332Z,5.30
2019-04-16T22:49:01.749Z,4.72
2019-04-16T22:51:31.096Z,6.10
2019-04-16T22:54:00.480Z,4.95
2019-04-16T22:56:32.308Z,6.90
2019-04-16T22:59:01.652Z,5.08
2019-04-16T23:01:32.614Z,6.95
2019-04-16T23:04:01.972Z,6.28
2019-04-16T23:06:31.314Z,7.53
2019-04-16T23:09:00.667Z,5.47
2019-04-16T23:11:30.015Z,6.17
2019-04-16T23:14:02.499Z,5.45
2019-04-16T23:16:30.417Z,8.28
2019-04-16T23:18:59.751Z,8.35
2019-04-16T23:21:29.113Z,8.48
2019-04-16T23:23:58.448Z,8.30
2019-04-16T23:26:32.194Z,9.00
2019-04-16T23:28:58.942Z,10.38
2019-04-16T23:31:28.302Z,10.03
2019-04-16T23:33:57.656Z,11.48
2019-04-16T23:36:26.988Z,14.15
2019-04-16T23:38:56.329Z,15.60
2019-04-16T23:41:25.687Z,15.50
2019-04-16T23:43:56.673Z,20.00
2019-04-16T23:46:37.718Z,19.55
2019-04-16T23:49:07.534Z,22.52
2019-04-16T23:51:36.672Z,22.82
2019-04-16T23:54:11.734Z,27.73
2019-04-16T23:56:43.363Z,23.62
2019-04-16T23:59:20.067Z,23.70
